createdAt,value
2023-05-14T00:00:44.386Z,999.30
2023-05-14T00:01:44.389Z,999.29
2023-05-14T00:02:44.461Z,999.29
2023-05-14T00:03:44.445Z,999.28
2023-05-14T00:04:44.360Z,999.27
2023-05-14T00:05:44.318Z,999.26
2023-05-14T00:06:44.322Z,999.24
2023-05-14T00:07:44.312Z,999.23
2023-05-14T00:08:44.313Z,999.22
2023-05-14T00:09:44.278Z,999.21
2023-05-14T00:10:44.284Z,999.21
2023-05-14T00:11:44.253Z,999.21
2023-05-14T00:12:44.287Z,999.21
2023-05-14T00:13:44.229Z,999.21
2023-05-14T00:14:44.238Z,999.21
2023-05-14T00:15:44.260Z,999.21
2023-05-14T00:16:44.232Z,999.20
2023-05-14T00:17:44.309Z,999.18
2023-05-14T00:18:44.263Z,999.17
2023-05-14T00:19:44.167Z,999.15
2023-05-14T00:20:44.201Z,999.14
2023-05-14T00:21:44.154Z,999.13
2023-05-14T00:22:44.193Z,999.12
2023-05-14T00:23:44.121Z,999.12
2023-05-14T00:24:44.144Z,999.11
2023-05-14T00:25:44.163Z,999.10
2023-05-14T00:26:44.144Z,999.09
2023-05-14T00:27:44.088Z,999.09
2023-05-14T00:28:44.110Z,999.08
2023-05-14T00:29:44.115Z,999.07
2023-05-14T00:30:44.070Z,999.06
2023-05-14T00:31:44.189Z,999.05
2023-05-14T00:32:44.113Z,999.04
2023-05-14T00:33:44.020Z,999.03
2023-05-14T00:34:44.041Z,999.01
2023-05-14T00:35:44.027Z,999.00
2023-05-14T00:36:44.016Z,999.00
2023-05-14T00:37:43.984Z,998.99
2023-05-14T00:38:43.995Z,998.98
2023-05-14T00:39:43.973Z,998.96
2023-05-14T00:40:43.994Z,998.95
2023-05-14T00:41:43.973Z,998.93
2023-05-14T00:42:43.987Z,998.92
2023-05-14T00:43:43.987Z,998.91
2023-05-14T00:44:43.941Z,998.90
2023-05-14T00:45:43.904Z,998.89
2023-05-14T00:46:44.049Z,998.88
2023-05-14T00:47:43.946Z,998.89
2023-05-14T00:48:43.889Z,998.89
2023-05-14T00:49:43.854Z,998.89
2023-05-14T00:50:43.893Z,998.88
2023-05-14T00:51:43.898Z,998.87
2023-05-14T00:52:43.854Z,998.86
2023-05-14T00:53:43.812Z,998.85
2023-05-14T00:54:43.855Z,998.84
2023-05-14T00:55:43.817Z,998.82
2023-05-14T00:56:43.815Z,998.81
2023-05-14T00:57:43.807Z,998.80
2023-05-14T00:58:43.799Z,998.81
2023-05-14T00:59:43.773Z,998.81
2023-05-14T01:00:43.829Z,998.81
2023-05-14T01:01:43.750Z,998.81
2023-05-14T01:02:43.937Z,998.80
2023-05-14T01:03:43.963Z,998.81
2023-05-14T01:04:43.736Z,998.80
2023-05-14T01:05:43.699Z,998.81
2023-05-14T01:06:43.733Z,998.82
2023-05-14T01:07:43.673Z,998.82
2023-05-14T01:08:43.707Z,998.83
2023-05-14T01:09:43.648Z,998.82
2023-05-14T01:10:43.684Z,998.82
2023-05-14T01:11:43.642Z,998.81
2023-05-14T01:12:43.675Z,998.81
2023-05-14T01:13:43.624Z,998.80
2023-05-14T01:14:43.631Z,998.80
2023-05-14T01:15:43.589Z,998.80
2023-05-14T01:16:43.672Z,998.80
2023-05-14T01:17:43.579Z,998.81
2023-05-14T01:18:43.652Z,998.83
2023-05-14T01:19:43.555Z,998.84
2023-05-14T01:20:43.552Z,998.85
2023-05-14T01:21:43.542Z,998.85
2023-05-14T01:22:43.547Z,998.85
2023-05-14T01:23:43.499Z,998.84
2023-05-14T01:24:43.595Z,998.83
2023-05-14T01:25:43.486Z,998.81
2023-05-14T01:26:43.491Z,998.81
2023-05-14T01:27:43.496Z,998.81
2023-05-14T01:28:43.480Z,998.80
2023-05-14T01:29:43.445Z,998.80
2023-05-14T01:30:43.491Z,998.80
2023-05-14T01:31:43.467Z,998.79
2023-05-14T01:32:43.505Z,998.79
2023-05-14T01:33:43.418Z,998.79
2023-05-14T01:34:43.433Z,998.79
2023-05-14T01:35:43.374Z,998.80
2023-05-14T01:36:43.383Z,998.80
2023-05-14T01:37:43.364Z,998.80
2023-05-14T01:38:43.410Z,998.80
2023-05-14T01:39:43.381Z,998.80
2023-05-14T01:40:43.341Z,998.79
2023-05-14T01:41:43.353Z,998.80
2023-05-14T01:42:43.334Z,998.80
2023-05-14T01:43:43.317Z,998.81
2023-05-14T01:44:43.289Z,998.80
2023-05-14T01:45:43.332Z,998.80
2023-05-14T01:46:43.301Z,998.79
2023-05-14T01:47:43.279Z,998.80
2023-05-14T01:48:43.226Z,998.80
2023-05-14T01:49:43.249Z,998.80
2023-05-14T01:50:43.245Z,998.80
2023-05-14T01:51:43.254Z,998.80
2023-05-14T01:52:43.198Z,998.79
2023-05-14T01:53:43.210Z,998.80
2023-05-14T01:54:43.204Z,998.78
2023-05-14T01:55:43.185Z,998.78
2023-05-14T01:56:43.145Z,998.76
2023-05-14T01:57:43.179Z,998.75
2023-05-14T01:58:43.139Z,998.74
2023-05-14T01:59:43.151Z,998.74
2023-05-14T02:00:43.106Z,998.74
2023-05-14T02:01:43.231Z,998.74
2023-05-14T02:02:43.149Z,998.75
2023-05-14T02:03:43.157Z,998.75
2023-05-14T02:04:43.083Z,998.75
2023-05-14T02:05:43.096Z,998.75
2023-05-14T02:06:43.063Z,998.74
2023-05-14T02:07:43.086Z,998.74
2023-05-14T02:08:43.053Z,998.73
2023-05-14T02:09:43.055Z,998.71
2023-05-14T02:10:43.007Z,998.70
2023-05-14T02:11:43.022Z,998.67
2023-05-14T02:12:43.022Z,998.66
2023-05-14T02:13:43.026Z,998.65
2023-05-14T02:14:42.984Z,998.65
2023-05-14T02:15:43.035Z,998.64
2023-05-14T02:16:42.997Z,998.63
2023-05-14T02:17:43.012Z,998.62
2023-05-14T02:18:42.998Z,998.61
2023-05-14T02:19:42.940Z,998.60
2023-05-14T02:20:42.914Z,998.59
2023-05-14T02:21:42.939Z,998.60
2023-05-14T02:22:42.898Z,998.59
2023-05-14T02:23:42.940Z,998.59
2023-05-14T02:24:42.877Z,998.59
2023-05-14T02:25:42.908Z,998.60
2023-05-14T02:26:42.860Z,998.60
2023-05-14T02:27:42.871Z,998.60
2023-05-14T02:28:42.833Z,998.60
2023-05-14T02:29:42.853Z,998.60
2023-05-14T02:30:42.888Z,998.60
2023-05-14T02:31:42.863Z,998.61
2023-05-14T02:32:42.841Z,998.62
2023-05-14T02:33:42.824Z,998.63
2023-05-14T02:34:42.767Z,998.63
2023-05-14T02:35:43.183Z,998.63
2023-05-14T02:36:42.738Z,998.63
2023-05-14T02:37:43.140Z,998.63
2023-05-14T02:38:42.735Z,998.62
2023-05-14T02:39:42.749Z,998.62
2023-05-14T02:40:42.701Z,998.61
2023-05-14T02:41:43.543Z,998.61
2023-05-14T02:42:42.680Z,998.60
2023-05-14T02:43:42.698Z,998.60
2023-05-14T02:44:42.671Z,998.59
2023-05-14T02:45:42.675Z,998.58
2023-05-14T02:46:42.721Z,998.57
2023-05-14T02:47:42.693Z,998.56
2023-05-14T02:48:42.637Z,998.56
2023-05-14T02:49:42.635Z,998.54
2023-05-14T02:50:42.612Z,998.54
2023-05-14T02:51:42.649Z,998.53
2023-05-14T02:52:42.625Z,998.52
2023-05-14T02:53:42.593Z,998.50
2023-05-14T02:54:42.572Z,998.49
2023-05-14T02:55:42.570Z,998.49
2023-05-14T02:56:42.562Z,998.49
2023-05-14T02:57:42.578Z,998.49
2023-05-14T02:58:42.507Z,998.48
2023-05-14T02:59:42.527Z,998.47
2023-05-14T03:00:43.201Z,998.47
2023-05-14T03:01:42.505Z,998.46
2023-05-14T03:02:42.611Z,998.45
2023-05-14T03:03:42.485Z,998.44
2023-05-14T03:04:42.405Z,998.42
2023-05-14T03:05:42.497Z,998.41
2023-05-14T03:06:42.438Z,998.40
2023-05-14T03:07:42.423Z,998.39
2023-05-14T03:08:42.366Z,998.39
2023-05-14T03:09:42.363Z,998.40
2023-05-14T03:10:42.417Z,998.40
2023-05-14T03:11:42.423Z,998.42
2023-05-14T03:12:42.376Z,998.43
2023-05-14T03:13:42.358Z,998.45
2023-05-14T03:14:42.341Z,998.47
2023-05-14T03:15:48.462Z,998.47
2023-05-14T03:16:42.619Z,998.47
2023-05-14T03:17:42.369Z,998.45
2023-05-14T03:18:42.362Z,998.44
2023-05-14T03:19:42.266Z,998.41
2023-05-14T03:20:43.821Z,998.41
2023-05-14T03:21:42.265Z,998.41
2023-05-14T03:22:42.222Z,998.43
2023-05-14T03:23:42.253Z,998.44
2023-05-14T03:24:42.192Z,998.46
2023-05-14T03:25:42.198Z,998.46
2023-05-14T03:26:42.180Z,998.46
2023-05-14T03:27:42.240Z,998.46
2023-05-14T03:28:42.159Z,998.45
2023-05-14T03:29:42.185Z,998.44
2023-05-14T03:30:42.187Z,998.42
2023-05-14T03:31:42.184Z,998.41
2023-05-14T03:32:42.205Z,998.40
2023-05-14T03:33:42.153Z,998.40
2023-05-14T03:34:42.120Z,998.41
2023-05-14T03:35:42.128Z,998.41
2023-05-14T03:36:42.066Z,998.41
2023-05-14T03:37:42.086Z,998.41
2023-05-14T03:38:42.055Z,998.42
2023-05-14T03:39:42.095Z,998.42
2023-05-14T03:40:42.049Z,998.41
2023-05-14T03:41:42.050Z,998.42
2023-05-14T03:42:42.002Z,998.42
2023-05-14T03:43:42.019Z,998.41
2023-05-14T03:44:42.019Z,998.40
2023-05-14T03:45:41.998Z,998.40
2023-05-14T03:46:41.980Z,998.40
2023-05-14T03:47:42.374Z,998.39
2023-05-14T03:48:42.019Z,998.38
2023-05-14T03:49:41.978Z,998.38
2023-05-14T03:50:41.924Z,998.37
2023-05-14T03:51:41.950Z,998.37
2023-05-14T03:52:41.933Z,998.37
2023-05-14T03:53:41.940Z,998.39
2023-05-14T03:54:41.912Z,998.40
2023-05-14T03:55:41.929Z,998.41
2023-05-14T03:56:41.886Z,998.41
2023-05-14T03:57:41.869Z,998.40
2023-05-14T03:58:41.829Z,998.39
2023-05-14T03:59:41.904Z,998.38
2023-05-14T04:00:41.822Z,998.38
2023-05-14T04:01:41.841Z,998.37
2023-05-14T04:02:41.904Z,998.36
2023-05-14T04:03:42.072Z,998.36
2023-05-14T04:04:41.814Z,998.35
2023-05-14T04:05:41.821Z,998.35
2023-05-14T04:06:41.774Z,998.37
2023-05-14T04:07:41.818Z,998.38
2023-05-14T04:08:41.738Z,998.38
2023-05-14T04:09:41.769Z,998.37
2023-05-14T04:10:41.734Z,998.38
2023-05-14T04:11:41.730Z,998.38
2023-05-14T04:12:41.743Z,998.39
2023-05-14T04:13:41.707Z,998.40
2023-05-14T04:14:41.664Z,998.41
2023-05-14T04:15:41.707Z,998.41
2023-05-14T04:16:41.703Z,998.42
2023-05-14T04:17:41.699Z,998.43
2023-05-14T04:18:41.673Z,998.43
2023-05-14T04:19:41.648Z,998.44
2023-05-14T04:20:41.613Z,998.45
2023-05-14T04:21:41.647Z,998.45
2023-05-14T04:22:41.644Z,998.44
2023-05-14T04:23:41.632Z,998.43
2023-05-14T04:24:41.597Z,998.42
2023-05-14T04:25:41.583Z,998.42
2023-05-14T04:26:41.540Z,998.40
2023-05-14T04:27:41.551Z,998.40
2023-05-14T04:28:41.575Z,998.40
2023-05-14T04:29:41.529Z,998.40
2023-05-14T04:30:41.503Z,998.41
2023-05-14T04:31:41.577Z,998.42
2023-05-14T04:32:41.563Z,998.43
2023-05-14T04:33:41.492Z,998.43
2023-05-14T04:34:41.503Z,998.44
2023-05-14T04:35:41.479Z,998.43
2023-05-14T04:36:41.456Z,998.43
2023-05-14T04:37:41.504Z,998.43
2023-05-14T04:38:41.421Z,998.44
2023-05-14T04:39:41.447Z,998.45
2023-05-14T04:40:41.417Z,998.46
2023-05-14T04:41:41.403Z,998.46
2023-05-14T04:42:41.388Z,998.46
2023-05-14T04:43:41.390Z,998.46
2023-05-14T04:44:41.368Z,998.45
2023-05-14T04:45:41.441Z,998.45
2023-05-14T04:46:41.358Z,998.45
2023-05-14T04:47:41.428Z,998.46
2023-05-14T04:48:41.345Z,998.47
2023-05-14T04:49:41.368Z,998.48
2023-05-14T04:50:41.312Z,998.49
2023-05-14T04:51:41.328Z,998.49
2023-05-14T04:52:41.268Z,998.50
2023-05-14T04:53:41.336Z,998.52
2023-05-14T04:54:41.329Z,998.53
2023-05-14T04:55:41.252Z,998.52
2023-05-14T04:56:41.241Z,998.52
2023-05-14T04:57:41.244Z,998.52
2023-05-14T04:58:41.256Z,998.53
2023-05-14T04:59:41.230Z,998.53
2023-05-14T05:00:41.173Z,998.54
2023-05-14T05:01:41.249Z,998.53
2023-05-14T05:02:41.204Z,998.52
2023-05-14T05:03:41.219Z,998.53
2023-05-14T05:04:41.511Z,998.53
2023-05-14T05:05:41.158Z,998.53
2023-05-14T05:06:41.115Z,998.52
2023-05-14T05:07:41.156Z,998.50
2023-05-14T05:08:41.114Z,998.51
2023-05-14T05:09:41.143Z,998.51
2023-05-14T05:10:41.199Z,998.52
2023-05-14T05:11:41.184Z,998.52
2023-05-14T05:12:41.144Z,998.53
2023-05-14T05:13:41.112Z,998.53
2023-05-14T05:14:41.086Z,998.52
2023-05-14T05:15:41.071Z,998.52
2023-05-14T05:16:41.033Z,998.52
2023-05-14T05:17:41.092Z,998.52
2023-05-14T05:18:41.118Z,998.52
2023-05-14T05:19:44.167Z,998.51
2023-05-14T05:20:40.994Z,998.49
2023-05-14T05:21:41.032Z,998.46
2023-05-14T05:22:41.017Z,998.46
2023-05-14T05:23:41.011Z,998.45
2023-05-14T05:24:40.966Z,998.45
2023-05-14T05:25:40.977Z,998.45
2023-05-14T05:26:40.956Z,998.45
2023-05-14T05:27:40.989Z,998.45
2023-05-14T05:28:40.919Z,998.46
2023-05-14T05:29:40.936Z,998.47
2023-05-14T05:30:40.929Z,998.48
2023-05-14T05:31:40.946Z,998.47
2023-05-14T05:32:40.939Z,998.48
2023-05-14T05:33:40.873Z,998.48
2023-05-14T05:34:40.838Z,998.47
2023-05-14T05:35:40.850Z,998.45
2023-05-14T05:36:40.854Z,998.45
2023-05-14T05:37:40.841Z,998.44
2023-05-14T05:38:40.805Z,998.43
2023-05-14T05:39:41.224Z,998.44
2023-05-14T05:40:40.819Z,998.44
2023-05-14T05:41:40.813Z,998.44
2023-05-14T05:42:40.771Z,998.43
2023-05-14T05:43:40.783Z,998.42
2023-05-14T05:44:40.729Z,998.43
2023-05-14T05:45:40.753Z,998.42
2023-05-14T05:46:40.776Z,998.44
2023-05-14T05:47:40.834Z,998.43
2023-05-14T05:48:42.469Z,998.43
2023-05-14T05:49:40.724Z,998.43
2023-05-14T05:50:40.663Z,998.44
2023-05-14T05:51:40.753Z,998.44
2023-05-14T05:52:40.678Z,998.44
2023-05-14T05:53:40.656Z,998.45
2023-05-14T05:54:40.655Z,998.46
2023-05-14T05:55:40.609Z,998.47
2023-05-14T05:56:40.664Z,998.48
2023-05-14T05:57:40.695Z,998.48
2023-05-14T05:58:40.617Z,998.49
2023-05-14T05:59:40.599Z,998.48
2023-05-14T06:00:40.624Z,998.49
2023-05-14T06:01:40.634Z,998.49
2023-05-14T06:02:40.729Z,998.48
2023-05-14T06:03:40.751Z,998.48
2023-05-14T06:04:40.569Z,998.48
2023-05-14T06:05:40.599Z,998.48
2023-05-14T06:06:40.535Z,998.49
2023-05-14T06:07:40.534Z,998.49
2023-05-14T06:08:40.503Z,998.50
2023-05-14T06:09:40.492Z,998.50
2023-05-14T06:10:40.496Z,998.51
2023-05-14T06:11:40.464Z,998.50
2023-05-14T06:12:40.491Z,998.51
2023-05-14T06:13:40.420Z,998.51
2023-05-14T06:14:40.470Z,998.51
2023-05-14T06:15:40.415Z,998.51
2023-05-14T06:16:40.464Z,998.52
2023-05-14T06:17:40.455Z,998.53
2023-05-14T06:18:40.440Z,998.53
2023-05-14T06:19:45.998Z,998.53
2023-05-14T06:20:40.397Z,998.52
2023-05-14T06:21:40.380Z,998.53
2023-05-14T06:22:40.361Z,998.53
2023-05-14T06:23:40.363Z,998.53
2023-05-14T06:24:40.338Z,998.54
2023-05-14T06:25:40.328Z,998.53
2023-05-14T06:26:40.352Z,998.53
2023-05-14T06:27:40.340Z,998.53
2023-05-14T06:28:40.299Z,998.53
2023-05-14T06:29:40.315Z,998.54
2023-05-14T06:30:40.274Z,998.53
2023-05-14T06:31:40.293Z,998.53
2023-05-14T06:32:40.266Z,998.53
2023-05-14T06:33:40.229Z,998.53
2023-05-14T06:34:40.307Z,998.53
2023-05-14T06:35:40.210Z,998.52
2023-05-14T06:36:40.227Z,998.53
2023-05-14T06:37:40.200Z,998.52
2023-05-14T06:38:40.234Z,998.52
2023-05-14T06:39:40.164Z,998.51
2023-05-14T06:40:40.191Z,998.51
2023-05-14T06:41:40.140Z,998.50
2023-05-14T06:42:40.168Z,998.49
2023-05-14T06:43:40.149Z,998.50
2023-05-14T06:44:40.140Z,998.48
2023-05-14T06:45:40.108Z,998.49
2023-05-14T06:46:40.111Z,998.48
2023-05-14T06:47:40.125Z,998.47
2023-05-14T06:48:40.174Z,998.48
2023-05-14T06:49:40.053Z,998.48
2023-05-14T06:50:40.078Z,998.48
2023-05-14T06:51:40.035Z,998.49
2023-05-14T06:52:40.038Z,998.48
2023-05-14T06:53:40.055Z,998.48
2023-05-14T06:54:40.032Z,998.48
2023-05-14T06:55:40.003Z,998.48
2023-05-14T06:56:40.022Z,998.47
2023-05-14T06:57:40.763Z,998.45
2023-05-14T06:58:40.030Z,998.45
2023-05-14T06:59:39.957Z,998.43
2023-05-14T07:00:39.966Z,998.42
2023-05-14T07:01:39.989Z,998.42
2023-05-14T07:02:39.982Z,998.41
2023-05-14T07:03:39.907Z,998.41
2023-05-14T07:04:40.094Z,998.41
2023-05-14T07:05:39.897Z,998.40
2023-05-14T07:06:39.930Z,998.40
2023-05-14T07:07:39.896Z,998.39
2023-05-14T07:08:39.883Z,998.38
2023-05-14T07:09:39.853Z,998.38
2023-05-14T07:10:39.893Z,998.38
2023-05-14T07:11:39.846Z,998.35
2023-05-14T07:12:39.892Z,998.34
2023-05-14T07:13:39.817Z,998.34
2023-05-14T07:14:39.834Z,998.31
2023-05-14T07:15:39.829Z,998.32
2023-05-14T07:16:39.881Z,998.31
2023-05-14T07:17:39.823Z,998.31
2023-05-14T07:18:39.813Z,998.30
2023-05-14T07:19:39.977Z,998.29
2023-05-14T07:20:39.814Z,998.28
2023-05-14T07:21:39.731Z,998.27
2023-05-14T07:22:39.733Z,998.24
2023-05-14T07:23:39.703Z,998.23
2023-05-14T07:24:39.741Z,998.24
2023-05-14T07:25:39.708Z,998.22
2023-05-14T07:26:39.701Z,998.19
2023-05-14T07:27:39.670Z,998.19
2023-05-14T07:28:39.678Z,998.20
2023-05-14T07:29:39.634Z,998.18
2023-05-14T07:30:39.687Z,998.17
2023-05-14T07:31:39.717Z,998.17
2023-05-14T07:32:39.701Z,998.16
2023-05-14T07:33:39.618Z,998.15
2023-05-14T07:34:39.668Z,998.14
2023-05-14T07:35:39.598Z,998.14
2023-05-14T07:36:40.394Z,998.13
2023-05-14T07:37:39.582Z,998.12
2023-05-14T07:38:39.641Z,998.12
2023-05-14T07:39:39.527Z,998.11
2023-05-14T07:40:39.564Z,998.10
2023-05-14T07:41:39.519Z,998.09
2023-05-14T07:42:39.567Z,998.08
2023-05-14T07:43:39.553Z,998.07
2023-05-14T07:44:39.557Z,998.07
2023-05-14T07:45:39.468Z,998.05
2023-05-14T07:46:39.488Z,998.05
2023-05-14T07:47:39.545Z,998.04
2023-05-14T07:48:39.520Z,998.02
2023-05-14T07:49:39.432Z,998.03
2023-05-14T07:50:39.438Z,998.03
2023-05-14T07:51:39.414Z,998.01
2023-05-14T07:52:39.489Z,998.00
2023-05-14T07:53:39.409Z,998.00
2023-05-14T07:54:39.412Z,998.01
2023-05-14T07:55:39.372Z,998.01
2023-05-14T07:56:39.426Z,998.00
2023-05-14T07:57:39.354Z,998.00
2023-05-14T07:58:39.391Z,998.01
2023-05-14T07:59:39.351Z,998.00
2023-05-14T08:00:39.355Z,998.00
2023-05-14T08:01:39.655Z,997.99
2023-05-14T08:02:39.437Z,997.98
2023-05-14T08:03:39.350Z,997.98
2023-05-14T08:04:39.495Z,997.97
2023-05-14T08:05:39.280Z,997.97
2023-05-14T08:06:39.283Z,997.96
2023-05-14T08:07:39.268Z,997.94
2023-05-14T08:08:39.259Z,997.95
2023-05-14T08:09:39.221Z,997.93
2023-05-14T08:10:39.304Z,997.94
2023-05-14T08:11:39.217Z,997.94
2023-05-14T08:12:39.227Z,997.95
2023-05-14T08:13:39.258Z,997.93
2023-05-14T08:14:39.244Z,997.94
2023-05-14T08:15:39.178Z,997.93
2023-05-14T08:16:39.300Z,997.92
2023-05-14T08:17:39.275Z,997.93
2023-05-14T08:18:39.205Z,997.92
2023-05-14T08:19:39.126Z,997.90
2023-05-14T08:20:39.175Z,997.89
2023-05-14T08:21:39.111Z,997.86
2023-05-14T08:22:39.113Z,997.86
2023-05-14T08:23:39.099Z,997.84
2023-05-14T08:24:39.144Z,997.84
2023-05-14T08:25:39.062Z,997.86
2023-05-14T08:26:39.127Z,997.86
2023-05-14T08:27:39.044Z,997.84
2023-05-14T08:28:39.073Z,997.84
2023-05-14T08:29:39.051Z,997.82
2023-05-14T08:30:39.050Z,997.81
2023-05-14T08:31:39.005Z,997.81
2023-05-14T08:32:39.078Z,997.80
2023-05-14T08:33:38.995Z,997.79
2023-05-14T08:34:39.035Z,997.80
2023-05-14T08:35:38.985Z,997.79
2023-05-14T08:36:38.997Z,997.77
2023-05-14T08:37:38.978Z,997.77
2023-05-14T08:38:38.961Z,997.78
2023-05-14T08:39:38.925Z,997.78
2023-05-14T08:40:38.921Z,997.76
2023-05-14T08:41:38.891Z,997.77
2023-05-14T08:42:38.903Z,997.75
2023-05-14T08:43:38.946Z,997.73
2023-05-14T08:44:38.914Z,997.70
2023-05-14T08:45:38.860Z,997.69
2023-05-14T08:46:38.910Z,997.69
2023-05-14T08:47:38.871Z,997.67
2023-05-14T08:48:38.875Z,997.66
2023-05-14T08:49:38.850Z,997.65
2023-05-14T08:50:38.858Z,997.64
2023-05-14T08:51:38.814Z,997.60
2023-05-14T08:52:38.813Z,997.61
2023-05-14T08:53:38.766Z,997.62
2023-05-14T08:54:38.817Z,997.60
2023-05-14T08:55:38.743Z,997.59
2023-05-14T08:56:38.820Z,997.58
2023-05-14T08:57:38.741Z,997.57
2023-05-14T08:58:38.769Z,997.53
2023-05-14T08:59:38.720Z,997.53
2023-05-14T09:00:38.719Z,997.55
2023-05-14T09:01:38.774Z,997.53
2023-05-14T09:02:38.725Z,997.55
2023-05-14T09:03:38.784Z,997.57
2023-05-14T09:04:38.679Z,997.57
2023-05-14T09:05:38.648Z,997.57
2023-05-14T09:06:38.692Z,997.59
2023-05-14T09:07:38.623Z,997.55
2023-05-14T09:08:38.652Z,997.55
2023-05-14T09:09:38.958Z,997.53
2023-05-14T09:10:38.613Z,997.55
2023-05-14T09:11:38.626Z,997.53
2023-05-14T09:12:38.581Z,997.52
2023-05-14T09:13:38.583Z,997.52
2023-05-14T09:14:38.558Z,997.51
2023-05-14T09:15:38.569Z,997.51
2023-05-14T09:16:38.656Z,997.49
2023-05-14T09:17:38.575Z,997.51
2023-05-14T09:18:38.564Z,997.50
2023-05-14T09:19:38.521Z,997.51
2023-05-14T09:20:38.533Z,997.45
2023-05-14T09:21:38.522Z,997.46
2023-05-14T09:22:41.410Z,997.48
2023-05-14T09:23:45.411Z,997.45
2023-05-14T09:24:38.504Z,997.44
2023-05-14T09:25:38.423Z,997.45
2023-05-14T09:26:38.453Z,997.44
2023-05-14T09:27:38.408Z,997.42
2023-05-14T09:28:38.427Z,997.41
2023-05-14T09:29:38.434Z,997.39
2023-05-14T09:30:38.455Z,997.39
2023-05-14T09:31:38.401Z,997.40
2023-05-14T09:32:38.457Z,997.39
2023-05-14T09:33:38.353Z,997.37
2023-05-14T09:34:38.389Z,997.34
2023-05-14T09:35:38.361Z,997.34
2023-05-14T09:36:38.360Z,997.35
2023-05-14T09:37:38.327Z,997.35
2023-05-14T09:38:38.315Z,997.33
2023-05-14T09:39:38.292Z,997.35
2023-05-14T09:40:38.307Z,997.33
2023-05-14T09:41:38.264Z,997.33
2023-05-14T09:42:38.322Z,997.35
2023-05-14T09:43:38.266Z,997.29
2023-05-14T09:44:38.316Z,997.28
2023-05-14T09:45:38.241Z,997.31
2023-05-14T09:46:38.233Z,997.30
2023-05-14T09:47:38.284Z,997.28
2023-05-14T09:48:52.542Z,997.26
2023-05-14T09:49:38.890Z,997.25
2023-05-14T09:50:38.263Z,997.25
2023-05-14T09:51:38.178Z,997.24
2023-05-14T09:52:38.179Z,997.23
2023-05-14T09:53:38.152Z,997.22
2023-05-14T09:54:38.168Z,997.23
2023-05-14T09:55:38.133Z,997.22
2023-05-14T09:56:38.147Z,997.19
2023-05-14T09:57:38.109Z,997.19
2023-05-14T09:58:38.157Z,997.19
2023-05-14T09:59:38.078Z,997.17
2023-05-14T10:00:38.104Z,997.12
2023-05-14T10:01:38.110Z,997.08
2023-05-14T10:02:38.388Z,997.10
2023-05-14T10:03:38.077Z,997.08
2023-05-14T10:04:38.072Z,997.08
2023-05-14T10:05:38.049Z,997.08
2023-05-14T10:06:44.905Z,997.08
2023-05-14T10:07:38.008Z,997.07
2023-05-14T10:08:38.024Z,997.06
2023-05-14T10:09:37.988Z,997.04
2023-05-14T10:10:38.034Z,997.02
2023-05-14T10:11:37.978Z,997.01
2023-05-14T10:12:37.941Z,996.98
2023-05-14T10:13:37.989Z,996.98
2023-05-14T10:14:37.920Z,996.98
2023-05-14T10:15:37.929Z,996.99
2023-05-14T10:16:37.977Z,996.99
2023-05-14T10:17:37.951Z,996.97
2023-05-14T10:18:37.874Z,997.00
2023-05-14T10:19:37.888Z,996.98
2023-05-14T10:20:37.865Z,996.96
2023-05-14T10:21:37.931Z,996.95
2023-05-14T10:22:37.849Z,996.99
2023-05-14T10:23:37.866Z,996.96
2023-05-14T10:24:37.813Z,996.97
2023-05-14T10:25:37.863Z,996.97
2023-05-14T10:26:37.801Z,996.95
2023-05-14T10:27:37.837Z,996.93
2023-05-14T10:28:37.775Z,996.93
2023-05-14T10:29:37.984Z,996.89
2023-05-14T10:30:37.779Z,996.89
2023-05-14T10:31:37.990Z,996.89
2023-05-14T10:32:37.784Z,996.88
2023-05-14T10:33:37.741Z,996.90
2023-05-14T10:34:37.807Z,996.88
2023-05-14T10:35:37.736Z,996.87
2023-05-14T10:36:37.690Z,996.87
2023-05-14T10:37:37.726Z,996.83
2023-05-14T10:38:37.669Z,996.83
2023-05-14T10:39:37.680Z,996.83
2023-05-14T10:40:37.660Z,996.84
2023-05-14T10:41:37.655Z,996.83
2023-05-14T10:42:37.677Z,996.85
2023-05-14T10:43:37.654Z,996.83
2023-05-14T10:44:37.628Z,996.82
2023-05-14T10:45:37.619Z,996.80
2023-05-14T10:46:37.646Z,996.77
2023-05-14T10:47:37.685Z,996.76
2023-05-14T10:48:37.578Z,996.73
2023-05-14T10:49:43.586Z,996.78
2023-05-14T10:50:37.551Z,996.69
2023-05-14T10:51:37.730Z,996.75
2023-05-14T10:52:37.527Z,996.74
2023-05-14T10:53:37.523Z,996.72
2023-05-14T10:54:37.518Z,996.69
2023-05-14T10:55:37.533Z,996.70
2023-05-14T10:56:37.469Z,996.69
2023-05-14T10:57:37.513Z,996.66
2023-05-14T10:58:37.463Z,996.66
2023-05-14T10:59:37.460Z,996.67
2023-05-14T11:00:37.509Z,996.65
2023-05-14T11:01:37.515Z,996.63
2023-05-14T11:02:37.492Z,996.61
2023-05-14T11:03:37.470Z,996.57
2023-05-14T11:04:37.414Z,996.57
2023-05-14T11:05:37.417Z,996.53
2023-05-14T11:06:37.406Z,996.54
2023-05-14T11:07:37.422Z,996.53
2023-05-14T11:08:37.391Z,996.51
2023-05-14T11:09:37.420Z,996.51
2023-05-14T11:10:37.368Z,996.50
2023-05-14T11:11:37.339Z,996.50
2023-05-14T11:12:37.314Z,996.47
2023-05-14T11:13:37.314Z,996.45
2023-05-14T11:14:37.323Z,996.43
2023-05-14T11:15:37.323Z,996.41
2023-05-14T11:16:37.289Z,996.38
2023-05-14T11:17:37.626Z,996.39
2023-05-14T11:18:37.285Z,996.38
2023-05-14T11:19:37.259Z,996.35
2023-05-14T11:20:37.254Z,996.36
2023-05-14T11:21:37.273Z,996.35
2023-05-14T11:22:37.235Z,996.35
2023-05-14T11:23:37.209Z,996.32
2023-05-14T11:24:37.183Z,996.32
2023-05-14T11:25:37.228Z,996.32
2023-05-14T11:26:37.263Z,996.31
2023-05-14T11:27:37.174Z,996.30
2023-05-14T11:28:37.218Z,996.31
2023-05-14T11:29:37.184Z,996.29
2023-05-14T11:30:37.112Z,996.29
2023-05-14T11:31:37.150Z,996.27
2023-05-14T11:32:37.115Z,996.27
2023-05-14T11:33:37.138Z,996.24
2023-05-14T11:34:37.079Z,996.25
2023-05-14T11:35:37.124Z,996.22
2023-05-14T11:36:37.113Z,996.20
2023-05-14T11:37:37.095Z,996.19
2023-05-14T11:38:37.100Z,996.19
2023-05-14T11:39:37.100Z,996.18
2023-05-14T11:40:37.041Z,996.15
2023-05-14T11:41:37.046Z,996.16
2023-05-14T11:42:37.046Z,996.13
2023-05-14T11:43:37.010Z,996.15
2023-05-14T11:44:36.975Z,996.11
2023-05-14T11:45:36.994Z,996.09
2023-05-14T11:46:37.010Z,996.05
2023-05-14T11:47:37.071Z,996.03
2023-05-14T11:48:36.944Z,996.00
2023-05-14T11:49:36.952Z,995.97
2023-05-14T11:50:37.008Z,995.98
2023-05-14T11:51:36.975Z,995.95
2023-05-14T11:52:36.901Z,995.97
2023-05-14T11:53:36.908Z,995.97
2023-05-14T11:54:42.578Z,995.96
2023-05-14T11:55:36.883Z,995.95
2023-05-14T11:56:36.890Z,995.93
2023-05-14T11:57:36.883Z,995.90
2023-05-14T11:58:36.833Z,995.89
2023-05-14T11:59:36.848Z,995.88
2023-05-14T12:00:36.848Z,995.87
2023-05-14T12:01:36.825Z,995.86
2023-05-14T12:02:36.917Z,995.82
2023-05-14T12:03:37.016Z,995.84
2023-05-14T12:04:36.777Z,995.83
2023-05-14T12:05:36.793Z,995.84
2023-05-14T12:06:36.746Z,995.88
2023-05-14T12:07:36.760Z,995.85
2023-05-14T12:08:36.804Z,995.80
2023-05-14T12:09:36.744Z,995.79
2023-05-14T12:10:36.749Z,995.75
2023-05-14T12:11:36.714Z,995.76
2023-05-14T12:12:36.700Z,995.72
2023-05-14T12:13:36.738Z,995.72
2023-05-14T12:14:36.671Z,995.74
2023-05-14T12:15:36.723Z,995.74
2023-05-14T12:16:38.340Z,995.73
2023-05-14T12:17:36.689Z,995.74
2023-05-14T12:18:36.694Z,995.76
2023-05-14T12:19:36.644Z,995.75
2023-05-14T12:20:36.597Z,995.76
2023-05-14T12:21:36.662Z,995.77
2023-05-14T12:22:37.201Z,995.76
2023-05-14T12:23:36.615Z,995.76
2023-05-14T12:24:36.562Z,995.77
2023-05-14T12:25:36.601Z,995.78
2023-05-14T12:26:36.544Z,995.78
2023-05-14T12:27:36.556Z,995.75
2023-05-14T12:28:38.498Z,995.76